Time;durP1;ratioP1;P1;durP2;ratioP2;P2;SDS_P1;SDS_P2;PMS_P1;PMS_P2;Temp;Humidity;BMP_temperature;BMP_pressure;BME280_temperature;BME280_humidity;BME280_pressure;Samples;Min_cycle;Max_cycle;Signal;HPM_P1;HPM_P2
2022/10/08 00:01:05;;;;;;;9.73;7.75;;;16.00;99.90;;;;;;5056651;28;20055;-79
2022/10/08 00:03:34;;;;;;;12.30;8.38;;;16.00;99.90;;;;;;5054737;28;20064;-79
2022/10/08 00:06:02;;;;;;;12.80;8.18;;;16.00;99.90;;;;;;5058047;28;20021;-79
2022/10/08 00:08:30;;;;;;;14.98;8.35;;;16.00;99.90;;;;;;5056664;28;20025;-79
2022/10/08 00:10:59;;;;;;;14.52;7.85;;;16.00;99.90;;;;;;5056662;28;20415;-79
2022/10/08 00:13:27;;;;;;;12.77;8.10;;;16.10;99.90;;;;;;5057895;28;20078;-79
2022/10/08 00:15:53;;;;;;;12.43;7.50;;;16.10;99.90;;;;;;5057631;28;20517;-78
2022/10/08 00:18:20;;;;;;;12.82;7.90;;;16.00;99.90;;;;;;5057301;28;20409;-79
2022/10/08 00:20:47;;;;;;;17.65;8.52;;;16.10;99.90;;;;;;5057840;28;20025;-79
2022/10/08 00:23:13;;;;;;;14.82;7.90;;;16.10;99.90;;;;;;5057167;28;20021;-78
2022/10/08 00:25:41;;;;;;;12.50;8.13;;;16.10;99.90;;;;;;5057758;28;20017;-79
2022/10/08 00:28:08;;;;;;;13.73;9.48;;;16.10;99.90;;;;;;5055387;28;20039;-78
2022/10/08 00:30:36;;;;;;;11.43;7.88;;;16.10;99.90;;;;;;5057543;28;20029;-79
2022/10/08 00:33:02;;;;;;;14.45;8.35;;;16.10;99.90;;;;;;5055747;28;20036;-78
2022/10/08 00:35:28;;;;;;;14.38;8.38;;;16.10;99.90;;;;;;5057125;28;20027;-79
2022/10/08 00:37:54;;;;;;;12.25;8.95;;;16.00;99.90;;;;;;5055910;28;20104;-78
2022/10/08 00:40:20;;;;;;;14.77;8.85;;;16.00;99.90;;;;;;5056118;28;20021;-78
2022/10/08 00:42:45;;;;;;;14.43;6.75;;;16.10;99.90;;;;;;5057800;28;20117;-78
2022/10/08 00:45:12;;;;;;;12.02;7.95;;;16.10;99.90;;;;;;5057299;28;20021;-78
2022/10/08 00:47:42;;;;;;;13.15;8.85;;;16.00;99.90;;;;;;5055506;28;20032;-78
2022/10/08 00:50:10;;;;;;;8.80;7.70;;;16.00;99.90;;;;;;5056135;28;20477;-78
2022/10/08 00:52:46;;;;;;;10.88;7.63;;;16.00;99.90;;;;;;5057191;28;20021;-78
2022/10/08 00:55:15;;;;;;;11.70;7.40;;;16.00;99.90;;;;;;5057101;28;20047;-78
2022/10/08 00:57:42;;;;;;;12.27;7.07;;;16.00;99.90;;;;;;5055959;28;20028;-78
2022/10/08 01:00:15;;;;;;;12.35;7.90;;;16.00;99.90;;;;;;5054884;28;20025;-79
2022/10/08 01:02:42;;;;;;;15.57;7.65;;;16.00;99.90;;;;;;5056528;28;20021;-78
2022/10/08 01:05:08;;;;;;;15.60;8.50;;;16.00;99.90;;;;;;5056963;28;20025;-78
2022/10/08 01:08:04;;;;;;;13.43;8.43;;;16.00;99.90;;;;;;5056865;28;20135;-79
2022/10/08 01:10:52;;;;;;;17.08;7.97;;;16.00;99.90;;;;;;5036737;28;20151;-78
2022/10/08 01:13:30;;;;;;;12.68;8.02;;;16.00;99.90;;;;;;5056980;28;20501;-79
2022/10/08 01:16:15;;;;;;;9.98;8.30;;;16.00;99.90;;;;;;5055473;28;20025;-79
2022/10/08 01:19:01;;;;;;;15.07;7.97;;;16.00;99.90;;;;;;5055252;28;20439;-79
2022/10/08 01:21:30;;;;;;;10.85;8.60;;;16.00;99.90;;;;;;5055539;28;20078;-79
2022/10/08 01:24:12;;;;;;;10.35;7.70;;;16.00;99.90;;;;;;5056625;28;20060;-78
2022/10/08 01:27:01;;;;;;;11.70;8.95;;;16.00;99.90;;;;;;5051784;28;20029;-79
2022/10/08 01:29:41;;;;;;;14.38;8.52;;;16.00;99.90;;;;;;5049631;28;20036;-79
2022/10/08 01:32:13;;;;;;;10.40;8.65;;;16.00;99.90;;;;;;5055307;28;20029;-78
2022/10/08 01:34:54;;;;;;;10.25;7.72;;;16.10;99.90;;;;;;5055453;28;20495;-79
2022/10/08 01:37:28;;;;;;;12.02;8.40;;;16.00;99.90;;;;;;5060767;28;20450;-79
2022/10/08 01:39:57;;;;;;;13.52;8.07;;;16.10;99.90;;;;;;5060657;28;20029;-79
2022/10/08 01:42:26;;;;;;;16.40;8.52;;;16.00;99.90;;;;;;5059421;28;20021;-79
2022/10/08 01:45:00;;;;;;;10.13;8.70;;;16.10;99.90;;;;;;5060696;28;20119;-78
2022/10/08 01:47:29;;;;;;;16.45;8.75;;;16.10;99.90;;;;;;5060114;28;20071;-79
2022/10/08 01:50:06;;;;;;;11.23;8.13;;;16.10;99.90;;;;;;5060598;28;20384;-79
2022/10/08 01:52:49;;;;;;;13.52;8.93;;;16.10;99.90;;;;;;5060395;28;20033;-79
2022/10/08 01:55:23;;;;;;;14.80;8.35;;;16.10;99.90;;;;;;5060522;28;20029;-79
2022/10/08 01:57:50;;;;;;;16.25;8.98;;;16.10;99.90;;;;;;5060424;28;20072;-79
2022/10/08 02:00:17;;;;;;;11.48;8.15;;;16.00;99.90;;;;;;5058877;28;20415;-78
2022/10/08 02:02:42;;;;;;;11.43;8.85;;;16.10;99.90;;;;;;5059094;28;20115;-79
2022/10/08 02:05:10;;;;;;;11.57;8.60;;;16.00;99.90;;;;;;5058957;28;20059;-79
2022/10/08 02:07:41;;;;;;;13.38;8.38;;;16.00;99.90;;;;;;5059154;28;20496;-79
2022/10/08 02:10:16;;;;;;;11.18;8.63;;;16.00;99.90;;;;;;5060296;28;20032;-79
2022/10/08 02:12:43;;;;;;;15.15;8.68;;;16.00;99.90;;;;;;5060135;28;20036;-79
2022/10/08 02:15:22;;;;;;;11.27;9.27;;;16.00;99.90;;;;;;5059894;28;20036;-79
2022/10/08 02:17:56;;;;;;;19.77;9.23;;;16.00;99.90;;;;;;5058317;28;20064;-79
2022/10/08 02:20:32;;;;;;;13.80;9.55;;;16.00;99.90;;;;;;5092137;28;20032;-78
2022/10/08 02:23:09;;;;;;;13.15;9.02;;;15.90;99.90;;;;;;5059947;28;20865;-78
2022/10/08 02:25:47;;;;;;;15.60;9.10;;;15.90;99.90;;;;;;5052104;28;20386;-78
2022/10/08 02:28:19;;;;;;;10.40;8.57;;;15.90;99.90;;;;;;5059838;28;20100;-79
2022/10/08 02:30:54;;;;;;;15.88;10.35;;;15.90;99.90;;;;;;5059887;28;20025;-78
2022/10/08 02:33:36;;;;;;;15.40;9.65;;;15.90;99.90;;;;;;5059580;28;20071;-78
2022/10/08 02:36:07;;;;;;;15.05;9.88;;;15.90;99.90;;;;;;5058205;28;20059;-78
2022/10/08 02:38:43;;;;;;;15.55;8.70;;;15.90;99.90;;;;;;5058355;28;20047;-79
2022/10/08 02:41:10;;;;;;;13.65;8.43;;;15.90;99.90;;;;;;5059574;28;20033;-79
2022/10/08 02:43:41;;;;;;;14.30;9.23;;;15.90;99.90;;;;;;5059460;28;20029;-78
2022/10/08 02:46:23;;;;;;;10.65;9.55;;;15.90;99.90;;;;;;5059086;28;20024;-78
2022/10/08 02:49:13;;;;;;;16.05;10.27;;;15.90;99.90;;;;;;5057961;28;20029;-79
2022/10/08 02:51:44;;;;;;;19.60;12.13;;;15.90;99.90;;;;;;5050992;28;20088;-78
2022/10/08 02:54:11;;;;;;;14.07;11.00;;;15.90;99.90;;;;;;5059333;28;20104;-78
2022/10/08 02:56:45;;;;;;;22.50;11.38;;;15.90;99.90;;;;;;5059416;28;20035;-78
2022/10/08 02:59:13;;;;;;;15.13;11.73;;;15.90;99.90;;;;;;5057740;28;20017;-79
2022/10/08 03:01:54;;;;;;;15.55;11.18;;;15.90;99.90;;;;;;5055581;28;20021;-79
2022/10/08 03:04:30;;;;;;;15.00;10.48;;;15.90;99.90;;;;;;5045617;28;20070;-79
2022/10/08 03:06:58;;;;;;;20.27;10.75;;;15.80;99.90;;;;;;5056705;28;20024;-78
2022/10/08 03:09:27;;;;;;;15.98;10.25;;;15.80;99.90;;;;;;5057711;28;20075;-79
2022/10/08 03:11:53;;;;;;;11.43;10.25;;;15.80;99.90;;;;;;5052709;28;20057;-78
2022/10/08 03:14:22;;;;;;;20.70;10.73;;;15.80;99.90;;;;;;5057816;28;20574;-78
2022/10/08 03:16:48;;;;;;;12.93;9.63;;;15.80;99.90;;;;;;5058573;28;20048;-78
2022/10/08 03:19:16;;;;;;;13.55;10.02;;;15.80;99.90;;;;;;5059150;28;20017;-78
2022/10/08 03:21:45;;;;;;;18.58;11.00;;;15.70;99.90;;;;;;5058784;28;20024;-78
2022/10/08 03:24:12;;;;;;;12.90;11.52;;;15.70;99.90;;;;;;5057977;28;20016;-78
2022/10/08 03:26:39;;;;;;;19.63;11.20;;;15.60;99.90;;;;;;5058660;28;20021;-78
2022/10/08 03:29:06;;;;;;;21.38;15.05;;;15.60;99.90;;;;;;5057308;28;20604;-78
2022/10/08 03:31:32;;;;;;;26.33;16.15;;;15.70;99.90;;;;;;5058261;28;20119;-78
2022/10/08 03:33:58;;;;;;;21.60;15.68;;;15.70;99.90;;;;;;5057424;28;20029;-78
2022/10/08 03:36:25;;;;;;;30.13;15.80;;;15.80;99.90;;;;;;5058473;28;20575;-78
2022/10/08 03:38:51;;;;;;;23.90;15.82;;;15.90;99.90;;;;;;5057299;28;20025;-78
2022/10/08 03:41:17;;;;;;;21.33;15.70;;;15.90;99.90;;;;;;5057301;28;20025;-78
2022/10/08 03:43:44;;;;;;;25.42;16.65;;;15.90;99.90;;;;;;5057283;28;20025;-79
2022/10/08 03:46:12;;;;;;;20.58;15.20;;;16.00;99.90;;;;;;5056724;28;20033;-78
2022/10/08 03:48:39;;;;;;;23.80;14.68;;;15.90;99.90;;;;;;5058472;28;20021;-78
2022/10/08 03:51:10;;;;;;;18.13;16.17;;;15.90;99.90;;;;;;5057046;28;20520;-77
2022/10/08 03:53:38;;;;;;;22.17;15.20;;;15.90;99.90;;;;;;5058184;28;20029;-79
2022/10/08 03:56:06;;;;;;;23.67;15.77;;;16.00;99.90;;;;;;5058334;28;20187;-78
2022/10/08 03:58:32;;;;;;;20.52;14.75;;;15.90;99.90;;;;;;5056039;28;20052;-78
2022/10/08 04:01:04;;;;;;;25.90;15.85;;;16.00;99.90;;;;;;5057688;28;20019;-78
2022/10/08 04:03:31;;;;;;;23.73;15.43;;;16.00;99.90;;;;;;5056836;28;20086;-78
2022/10/08 04:05:57;;;;;;;29.85;16.42;;;16.10;99.90;;;;;;5056651;28;20094;-78
2022/10/08 04:08:23;;;;;;;26.60;17.35;;;16.20;99.90;;;;;;5056656;28;20029;-78
2022/10/08 04:10:49;;;;;;;23.00;16.02;;;16.20;99.90;;;;;;5056432;28;20519;-78
2022/10/08 04:13:16;;;;;;;21.52;15.80;;;16.30;99.90;;;;;;5057824;28;20076;-79
2022/10/08 04:15:42;;;;;;;21.52;14.25;;;16.40;99.90;;;;;;5057501;28;20025;-78
2022/10/08 04:18:11;;;;;;;24.30;14.13;;;16.40;99.90;;;;;;5057566;28;20133;-77
2022/10/08 04:20:42;;;;;;;19.02;13.55;;;16.40;99.90;;;;;;5057611;28;20027;-78
2022/10/08 04:23:08;;;;;;;21.55;12.80;;;16.40;99.90;;;;;;5056411;28;20116;-78
2022/10/08 04:25:35;;;;;;;19.02;12.35;;;16.40;99.90;;;;;;5057997;28;20031;-78
2022/10/08 04:28:04;;;;;;;22.15;13.00;;;16.40;99.90;;;;;;5056234;28;20037;-79
2022/10/08 04:30:31;;;;;;;20.85;13.50;;;16.40;99.90;;;;;;5057608;28;20551;-79
2022/10/08 04:32:57;;;;;;;24.33;13.05;;;16.30;99.90;;;;;;5056406;28;20481;-78
2022/10/08 04:35:23;;;;;;;23.83;13.05;;;16.30;99.90;;;;;;5057627;28;20099;-78
2022/10/08 04:37:49;;;;;;;18.85;11.48;;;16.20;99.90;;;;;;5056035;28;20061;-78
2022/10/08 04:40:15;;;;;;;17.20;11.27;;;16.20;99.90;;;;;;5057320;28;20025;-78
2022/10/08 04:42:41;;;;;;;18.30;11.75;;;16.20;99.90;;;;;;5057210;28;20036;-78
2022/10/08 04:45:07;;;;;;;20.35;12.20;;;16.10;99.90;;;;;;5057577;28;20078;-78
2022/10/08 04:47:33;;;;;;;22.05;11.95;;;16.10;99.90;;;;;;5056756;28;20021;-78
2022/10/08 04:49:58;;;;;;;23.83;12.35;;;16.10;99.90;;;;;;5055972;28;20120;-78
2022/10/08 04:52:24;;;;;;;24.67;13.98;;;16.00;99.90;;;;;;5057133;28;20041;-79
2022/10/08 04:54:50;;;;;;;19.70;13.10;;;16.00;99.90;;;;;;5057041;28;20388;-78
2022/10/08 04:57:16;;;;;;;20.15;13.07;;;15.90;99.90;;;;;;5055754;28;20077;-79
2022/10/08 04:59:41;;;;;;;18.55;14.77;;;15.90;99.90;;;;;;5056949;28;20029;-78
2022/10/08 05:02:07;;;;;;;24.83;14.25;;;15.90;99.90;;;;;;5056646;28;20017;-80
2022/10/08 05:04:33;;;;;;;23.48;14.60;;;15.90;99.90;;;;;;5055698;28;20021;-79
2022/10/08 05:06:59;;;;;;;21.52;14.25;;;15.80;99.90;;;;;;5055512;28;20025;-79
2022/10/08 05:09:25;;;;;;;27.67;15.13;;;15.80;99.90;;;;;;5056390;28;20025;-78
2022/10/08 05:11:50;;;;;;;25.27;14.93;;;15.80;99.90;;;;;;5056574;28;20021;-78
2022/10/08 05:14:16;;;;;;;23.92;16.02;;;15.80;99.90;;;;;;5057090;28;20029;-79
2022/10/08 05:16:42;;;;;;;24.98;15.77;;;15.80;99.90;;;;;;5056413;28;20075;-79
2022/10/08 05:19:08;;;;;;;26.40;16.08;;;15.70;99.90;;;;;;5056893;28;20028;-78
2022/10/08 05:21:34;;;;;;;25.70;16.85;;;15.70;99.90;;;;;;5056869;28;20028;-78
2022/10/08 05:24:03;;;;;;;27.33;16.88;;;15.80;99.90;;;;;;5055884;28;20454;-79
2022/10/08 05:26:33;;;;;;;28.35;17.80;;;15.80;99.90;;;;;;5056727;28;20029;-78
2022/10/08 05:29:00;;;;;;;28.40;17.45;;;15.80;99.90;;;;;;5055590;28;20022;-78
2022/10/08 05:31:27;;;;;;;30.02;18.48;;;15.80;99.90;;;;;;5055409;28;20028;-80
2022/10/08 05:33:54;;;;;;;34.13;18.77;;;15.80;99.90;;;;;;5056632;28;20013;-79
2022/10/08 05:36:22;;;;;;;31.33;18.83;;;15.80;99.90;;;;;;5055091;28;20045;-78
2022/10/08 05:38:49;;;;;;;36.83;19.75;;;15.80;99.90;;;;;;5056479;28;20016;-78
2022/10/08 05:41:18;;;;;;;35.22;20.23;;;15.80;99.90;;;;;;5088824;28;20031;-79
2022/10/08 05:43:45;;;;;;;38.10;21.35;;;15.80;99.90;;;;;;5056469;28;20036;-78
2022/10/08 05:46:11;;;;;;;34.78;19.38;;;15.80;99.90;;;;;;5056093;28;20029;-78
2022/10/08 05:48:38;;;;;;;35.47;19.95;;;15.80;99.90;;;;;;5056258;28;20021;-78
2022/10/08 05:51:10;;;;;;;39.67;20.20;;;15.80;99.90;;;;;;5055625;28;20028;-78
2022/10/08 05:53:40;;;;;;;33.65;20.05;;;15.90;99.90;;;;;;5054173;28;20082;-78
2022/10/08 05:56:09;;;;;;;29.60;19.60;;;15.90;99.90;;;;;;5056502;28;20052;-79
2022/10/08 05:58:36;;;;;;;36.40;20.00;;;15.80;99.90;;;;;;5055555;28;20024;-79
2022/10/08 06:01:06;;;;;;;35.47;20.75;;;15.90;99.90;;;;;;5054821;28;20036;-78
2022/10/08 06:03:32;;;;;;;40.45;21.77;;;15.90;99.90;;;;;;5055267;28;20017;-78
2022/10/08 06:06:03;;;;;;;40.53;19.75;;;15.90;99.90;;;;;;5055991;28;20104;-78
2022/10/08 06:08:29;;;;;;;45.15;21.10;;;15.90;99.90;;;;;;5053654;28;20021;-79
2022/10/08 06:10:55;;;;;;;33.47;19.33;;;15.90;99.90;;;;;;5088484;28;20063;-78
2022/10/08 06:13:22;;;;;;;31.85;19.38;;;16.00;99.90;;;;;;5055072;28;20036;-78
2022/10/08 06:16:05;;;;;;;40.47;19.42;;;16.00;99.90;;;;;;5056136;28;20029;-78
2022/10/08 06:18:34;;;;;;;32.13;18.55;;;16.00;99.90;;;;;;5056485;28;20029;-78
2022/10/08 06:21:05;;;;;;;30.42;17.92;;;16.00;99.90;;;;;;5055543;28;20025;-78
2022/10/08 06:23:31;;;;;;;36.53;18.42;;;16.10;99.90;;;;;;5058549;28;20017;-79
2022/10/08 06:26:08;;;;;;;30.02;16.45;;;16.10;99.90;;;;;;5060017;28;20039;-80
2022/10/08 06:28:37;;;;;;;43.63;17.58;;;16.10;99.90;;;;;;5059689;28;20078;-79
2022/10/08 06:31:03;;;;;;;34.28;16.65;;;16.10;99.90;;;;;;5058463;28;20036;-79
2022/10/08 06:33:30;;;;;;;39.75;17.05;;;16.20;99.90;;;;;;5059923;28;20024;-78
2022/10/08 06:36:01;;;;;;;27.42;16.25;;;16.20;99.90;;;;;;5059638;28;20057;-79
2022/10/08 06:38:27;;;;;;;32.95;18.73;;;16.20;99.90;;;;;;5058699;28;20032;-79
2022/10/08 06:40:56;;;;;;;33.60;17.00;;;16.20;99.90;;;;;;5059680;28;20025;-79
2022/10/08 06:43:22;;;;;;;27.15;15.35;;;16.20;99.90;;;;;;5059676;28;20036;-79
2022/10/08 06:45:48;;;;;;;33.65;16.30;;;16.20;99.90;;;;;;5059009;28;20021;-79
2022/10/08 06:48:14;;;;;;;32.70;15.70;;;16.20;99.90;;;;;;5058196;28;20017;-78
2022/10/08 06:50:40;;;;;;;31.90;15.05;;;16.20;99.90;;;;;;5057914;28;20111;-78
2022/10/08 06:53:09;;;;;;;30.13;16.05;;;16.20;99.90;;;;;;5058368;28;20028;-78
2022/10/08 06:55:35;;;;;;;35.53;15.70;;;16.30;99.90;;;;;;5057927;28;20090;-78
2022/10/08 06:58:02;;;;;;;31.45;16.05;;;16.30;99.90;;;;;;5059394;28;20025;-77
2022/10/08 07:00:28;;;;;;;33.15;17.27;;;16.30;99.90;;;;;;5059100;28;20055;-77
2022/10/08 07:02:56;;;;;;;31.77;16.80;;;16.40;99.90;;;;;;5056480;28;20017;-77
2022/10/08 07:05:22;;;;;;;36.10;18.25;;;16.40;99.90;;;;;;5089379;28;20032;-78
2022/10/08 07:07:48;;;;;;;36.88;18.75;;;16.40;99.90;;;;;;5057777;28;20017;-77
2022/10/08 07:10:14;;;;;;;33.63;17.67;;;16.50;99.90;;;;;;5058994;28;20029;-77
2022/10/08 07:12:40;;;;;;;33.00;19.05;;;16.50;99.90;;;;;;5058833;28;20028;-78
2022/10/08 07:15:06;;;;;;;32.08;18.40;;;16.50;99.90;;;;;;5058753;28;20037;-78
2022/10/08 07:17:32;;;;;;;33.17;18.70;;;16.50;99.90;;;;;;5057180;28;20028;-78
2022/10/08 07:19:58;;;;;;;28.85;18.15;;;16.60;99.90;;;;;;5058519;28;20032;-78
2022/10/08 07:22:24;;;;;;;30.70;19.27;;;16.60;99.90;;;;;;5059286;28;20032;-79
2022/10/08 07:24:50;;;;;;;34.95;19.25;;;16.60;99.90;;;;;;5057208;28;20017;-78
2022/10/08 07:27:18;;;;;;;31.25;19.20;;;16.60;99.90;;;;;;5057405;28;20489;-78
2022/10/08 07:29:44;;;;;;;32.30;18.85;;;16.60;99.90;;;;;;5058668;28;20434;-78
2022/10/08 07:32:10;;;;;;;26.73;18.50;;;16.60;99.90;;;;;;5057761;28;20055;-78
2022/10/08 07:34:36;;;;;;;30.52;20.00;;;16.70;99.90;;;;;;5058021;28;20056;-78
2022/10/08 07:37:01;;;;;;;34.83;19.75;;;16.70;99.90;;;;;;5056981;28;20048;-78
2022/10/08 07:39:27;;;;;;;36.50;18.40;;;16.80;99.90;;;;;;5090261;28;20079;-78
2022/10/08 07:41:53;;;;;;;27.08;19.65;;;16.80;99.90;;;;;;5058246;28;20009;-78
2022/10/08 07:44:19;;;;;;;35.10;17.50;;;16.90;99.90;;;;;;5090785;28;20036;-78
2022/10/08 07:46:49;;;;;;;30.52;19.45;;;17.00;99.90;;;;;;5058282;28;20038;-78
2022/10/08 07:49:21;;;;;;;30.40;19.00;;;17.10;99.90;;;;;;5057186;28;20033;-78
2022/10/08 07:51:47;;;;;;;30.75;17.40;;;17.10;99.90;;;;;;5058459;28;20463;-78
2022/10/08 07:54:15;;;;;;;24.45;17.13;;;17.20;99.90;;;;;;5058212;28;20137;-78
2022/10/08 07:56:41;;;;;;;30.58;16.63;;;17.30;99.90;;;;;;5058141;28;20100;-79
2022/10/08 07:59:07;;;;;;;28.27;17.08;;;17.30;99.90;;;;;;5056711;28;20086;-78
2022/10/08 08:01:34;;;;;;;31.95;17.73;;;17.40;99.90;;;;;;5056221;28;20029;-79
2022/10/08 08:04:05;;;;;;;28.92;15.35;;;17.40;99.90;;;;;;5056792;28;20155;-79
2022/10/08 08:06:32;;;;;;;31.95;15.95;;;17.50;99.90;;;;;;5057803;28;20040;-79
2022/10/08 08:09:00;;;;;;;30.58;15.77;;;17.50;99.90;;;;;;5057910;28;20017;-79
2022/10/08 08:11:26;;;;;;;31.63;15.57;;;17.50;99.90;;;;;;5057118;28;20080;-79
2022/10/08 08:13:52;;;;;;;26.48;15.27;;;17.50;99.90;;;;;;5057637;28;20021;-80
2022/10/08 08:16:21;;;;;;;23.15;15.43;;;17.60;99.90;;;;;;5056336;28;20507;-79
2022/10/08 08:18:50;;;;;;;23.58;14.88;;;17.60;99.90;;;;;;5057481;28;20078;-79
2022/10/08 08:21:24;;;;;;;22.35;14.65;;;17.70;99.90;;;;;;5057847;28;20476;-79
2022/10/08 08:23:52;;;;;;;32.63;15.52;;;17.70;99.90;;;;;;5057615;28;20561;-79
2022/10/08 08:26:21;;;;;;;23.05;14.65;;;17.80;99.90;;;;;;5057440;28;20036;-79
2022/10/08 08:28:55;;;;;;;31.02;15.65;;;17.80;99.90;;;;;;5056283;28;20473;-79
2022/10/08 08:31:27;;;;;;;28.67;14.52;;;17.80;99.90;;;;;;5055916;28;20554;-78
2022/10/08 08:33:57;;;;;;;19.70;13.60;;;17.90;99.90;;;;;;5056001;28;20047;-79
2022/10/08 08:36:29;;;;;;;28.73;14.30;;;17.90;99.90;;;;;;5057378;28;20509;-79
2022/10/08 08:38:55;;;;;;;31.05;13.98;;;18.00;99.90;;;;;;5056353;28;20032;-79
2022/10/08 08:41:37;;;;;;;23.05;14.57;;;18.00;99.90;;;;;;5057237;28;20029;-79
2022/10/08 08:44:26;;;;;;;21.85;13.80;;;18.00;99.90;;;;;;5057218;28;20028;-79
2022/10/08 08:47:08;;;;;;;26.23;13.30;;;18.00;99.90;;;;;;5045330;28;20043;-79
2022/10/08 08:49:44;;;;;;;27.33;14.07;;;18.10;99.90;;;;;;5055008;28;20021;-79
2022/10/08 08:52:14;;;;;;;27.55;13.10;;;18.20;99.90;;;;;;5056988;28;20025;-79
2022/10/08 08:54:40;;;;;;;21.27;12.55;;;18.30;99.90;;;;;;5057207;28;20024;-78
2022/10/08 08:57:48;;;;;;;20.92;11.90;;;18.40;99.90;;;;;;5056047;28;20029;-78
2022/10/08 09:00:17;;;;;;;24.15;12.15;;;18.30;99.90;;;;;;5055611;28;20107;-79
2022/10/08 09:03:09;;;;;;;19.58;10.88;;;18.40;99.90;;;;;;5056700;28;20025;-79
2022/10/08 09:05:41;;;;;;;21.02;11.52;;;18.50;99.90;;;;;;5053476;28;20075;-79
2022/10/08 09:08:29;;;;;;;16.50;10.98;;;18.50;99.90;;;;;;5057196;28;20021;-79
2022/10/08 09:11:01;;;;;;;15.50;10.75;;;18.50;99.90;;;;;;5077241;28;20017;-79
2022/10/08 09:13:43;;;;;;;17.08;11.07;;;18.50;99.90;;;;;;5055730;28;20052;-79
2022/10/08 09:16:13;;;;;;;15.30;9.88;;;18.50;99.90;;;;;;5056687;28;20386;-79
2022/10/08 09:18:46;;;;;;;15.43;9.15;;;18.50;99.90;;;;;;5056905;28;20112;-79
2022/10/08 09:21:12;;;;;;;16.05;8.52;;;18.50;99.90;;;;;;5055525;28;20119;-79
2022/10/08 09:23:38;;;;;;;15.45;8.60;;;18.40;99.90;;;;;;5056588;28;20053;-79
2022/10/08 09:26:19;;;;;;;21.15;10.20;;;18.40;99.90;;;;;;5056621;28;20013;-78
2022/10/08 09:28:54;;;;;;;18.67;9.93;;;18.40;99.90;;;;;;5056745;28;20021;-79
2022/10/08 09:31:30;;;;;;;17.13;9.50;;;18.30;99.90;;;;;;5055075;28;20638;-79
2022/10/08 09:34:04;;;;;;;14.15;8.60;;;18.30;99.90;;;;;;5055254;28;20037;-79
2022/10/08 09:36:45;;;;;;;14.63;8.75;;;18.30;99.90;;;;;;5035395;28;20046;-79
2022/10/08 09:39:17;;;;;;;13.32;8.48;;;18.30;99.90;;;;;;5085061;28;20032;-79
2022/10/08 09:41:45;;;;;;;15.75;9.20;;;18.30;99.90;;;;;;5056748;28;20423;-79
2022/10/08 09:44:17;;;;;;;14.52;8.13;;;18.30;99.90;;;;;;5056492;28;20022;-79
2022/10/08 09:46:43;;;;;;;12.57;7.45;;;18.30;99.90;;;;;;5056396;28;20466;-78
2022/10/08 09:49:34;;;;;;;14.27;8.35;;;18.40;99.90;;;;;;5056681;28;20025;-79
2022/10/08 09:52:11;;;;;;;15.70;8.65;;;18.50;99.90;;;;;;5048344;28;20099;-79
2022/10/08 09:54:45;;;;;;;15.00;8.50;;;18.60;99.90;;;;;;5056330;28;20608;-79
2022/10/08 09:57:15;;;;;;;18.80;9.38;;;18.60;99.90;;;;;;5059168;28;20115;-78
2022/10/08 09:59:52;;;;;;;13.52;8.25;;;18.70;99.90;;;;;;5058911;28;20060;-78
2022/10/08 10:02:36;;;;;;;21.52;8.65;;;18.70;99.90;;;;;;5060300;28;20048;-78
2022/10/08 10:05:06;;;;;;;16.52;7.47;;;18.70;99.90;;;;;;5059122;28;20021;-78
2022/10/08 10:07:41;;;;;;;14.20;8.23;;;18.80;99.90;;;;;;5058912;28;20045;-79
2022/10/08 10:10:39;;;;;;;17.95;8.55;;;19.00;99.90;;;;;;5058759;28;20566;-79
2022/10/08 10:13:22;;;;;;;12.32;7.57;;;19.20;99.90;;;;;;5051925;28;20039;-79
2022/10/08 10:16:02;;;;;;;19.92;7.97;;;19.50;99.90;;;;;;5048409;28;20021;-79
2022/10/08 10:18:52;;;;;;;15.13;7.10;;;19.70;99.90;;;;;;5059890;28;20033;-78
2022/10/08 10:21:45;;;;;;;13.73;7.10;;;20.10;99.90;;;;;;5060128;28;20036;-80
2022/10/08 10:24:31;;;;;;;13.55;6.88;;;20.30;99.90;;;;;;5054469;28;20037;-79
2022/10/08 10:27:06;;;;;;;14.77;6.72;;;20.20;99.90;;;;;;5059809;28;20102;-79
2022/10/08 10:29:51;;;;;;;13.50;6.85;;;20.30;99.90;;;;;;5060074;28;20025;-79
2022/10/08 10:32:26;;;;;;;12.98;7.40;;;20.20;99.90;;;;;;5059467;28;20025;-80
2022/10/08 10:35:01;;;;;;;13.75;7.07;;;20.10;99.90;;;;;;5058629;28;20112;-79
2022/10/08 10:37:43;;;;;;;11.05;6.65;;;20.10;99.90;;;;;;5058335;28;20455;-79
2022/10/08 10:40:27;;;;;;;12.18;6.88;;;20.10;99.90;;;;;;5058433;28;20500;-79
2022/10/08 10:43:20;;;;;;;17.27;6.88;;;20.40;99.90;;;;;;5055036;28;20013;-80
2022/10/08 10:46:14;;;;;;;15.20;7.10;;;20.30;99.90;;;;;;5059191;28;20453;-78
2022/10/08 10:48:40;;;;;;;13.05;7.10;;;20.50;99.90;;;;;;5059502;28;20381;-79
2022/10/08 10:51:30;;;;;;;9.40;6.00;;;20.70;99.90;;;;;;5059347;28;20095;-79
2022/10/08 10:54:23;;;;;;;11.32;6.20;;;20.90;99.90;;;;;;5057998;28;20044;-80
2022/10/08 10:57:01;;;;;;;10.65;6.68;;;21.00;99.90;;;;;;5059485;28;20384;-78
2022/10/08 10:59:55;;;;;;;18.08;6.97;;;21.10;99.90;;;;;;5057907;28;20032;-79
2022/10/08 11:02:41;;;;;;;13.50;6.28;;;21.10;99.90;;;;;;5054787;28;20385;-80
2022/10/08 11:05:23;;;;;;;13.55;6.07;;;21.10;99.90;;;;;;5057807;28;20029;-80
2022/10/08 11:08:09;;;;;;;15.65;6.03;;;21.20;99.90;;;;;;5051812;28;20485;-80
2022/10/08 11:10:56;;;;;;;17.80;6.60;;;21.10;99.90;;;;;;5054946;28;20320;-80
2022/10/08 11:13:33;;;;;;;15.75;6.88;;;21.00;99.90;;;;;;5058970;28;20025;-79
2022/10/08 11:16:05;;;;;;;14.30;6.15;;;21.30;99.90;;;;;;5058340;28;20505;-79
2022/10/08 11:18:50;;;;;;;16.63;5.22;;;21.30;99.90;;;;;;5058869;28;20028;-80
2022/10/08 11:22:01;;;;;;;11.35;6.30;;;21.40;99.90;;;;;;5057470;28;20036;-80
2022/10/08 11:24:45;;;;;;;;;;;21.50;99.90;;;;;;5074205;28;20089;-80
2022/10/08 11:27:20;;;;;;;12.77;5.88;;;21.60;99.90;;;;;;5050982;28;19958;-80
2022/10/08 11:30:27;;;;;;;8.70;6.07;;;21.30;99.90;;;;;;5057429;28;20025;-80
2022/10/08 11:32:55;;;;;;;16.13;6.40;;;21.20;99.90;;;;;;5039088;28;20056;-79
2022/10/08 11:35:37;;;;;;;15.73;5.70;;;20.90;99.90;;;;;;5057455;28;20032;-80
2022/10/08 11:38:30;;;;;;;15.50;5.57;;;20.80;99.90;;;;;;5056908;28;20037;-81
2022/10/08 11:41:11;;;;;;;15.05;5.95;;;20.60;99.90;;;;;;5058509;28;20492;-78
2022/10/08 11:43:40;;;;;;;16.10;6.45;;;20.50;99.90;;;;;;5056867;28;20032;-80
2022/10/08 11:46:32;;;;;;;14.25;6.50;;;20.50;99.90;;;;;;5058013;28;20098;-83
2022/10/08 11:49:22;;;;;;;15.32;5.95;;;20.60;99.90;;;;;;5057014;28;20047;-82
2022/10/08 11:51:52;;;;;;;22.20;5.87;;;20.70;99.90;;;;;;5058477;28;20016;-80
2022/10/08 11:54:37;;;;;;;20.85;5.68;;;20.80;99.90;;;;;;5056930;28;20059;-81
2022/10/08 11:57:35;;;;;;;12.93;5.82;;;20.90;99.90;;;;;;5058258;28;20104;-82
2022/10/08 12:00:20;;;;;;;13.30;5.93;;;20.90;99.90;;;;;;5048574;28;20016;-82
2022/10/08 12:02:52;;;;;;;20.52;6.10;;;21.00;99.90;;;;;;5058318;28;20039;-82
2022/10/08 12:05:34;;;;;;;10.35;6.07;;;21.20;99.90;;;;;;5058182;28;20029;-81
2022/10/08 12:08:05;;;;;;;15.55;6.20;;;21.30;99.90;;;;;;5058098;28;20021;-80
2022/10/08 12:10:37;;;;;;;15.48;6.35;;;21.40;99.90;;;;;;5058001;28;20395;-81
2022/10/08 12:13:12;;;;;;;14.98;5.85;;;21.40;99.90;;;;;;5057809;28;20033;-81
2022/10/08 12:15:39;;;;;;;10.63;5.82;;;21.30;99.90;;;;;;5057769;28;20025;-82
2022/10/08 12:18:16;;;;;;;11.80;5.90;;;21.20;99.90;;;;;;5057765;28;20033;-81
2022/10/08 12:20:42;;;;;;;13.48;6.05;;;21.10;99.90;;;;;;5056291;28;20025;-80
2022/10/08 12:23:20;;;;;;;13.75;6.65;;;21.10;99.90;;;;;;5058042;28;20021;-81
2022/10/08 12:25:47;;;;;;;12.27;6.85;;;21.10;99.90;;;;;;5051073;28;20017;-82
2022/10/08 12:28:19;;;;;;;8.75;5.65;;;21.10;99.90;;;;;;5057648;28;20151;-82
2022/10/08 12:30:53;;;;;;;15.43;6.68;;;21.00;99.90;;;;;;5057309;28;20059;-81
2022/10/08 12:33:20;;;;;;;14.90;5.88;;;21.20;99.90;;;;;;5056276;28;20032;-81
2022/10/08 12:36:13;;;;;;;15.93;6.10;;;21.30;99.90;;;;;;5057722;28;20033;-81
2022/10/08 12:38:55;;;;;;;16.88;6.90;;;21.50;99.90;;;;;;5057660;28;20048;-81
2022/10/08 12:41:43;;;;;;;12.32;6.75;;;21.50;99.90;;;;;;5055273;28;20040;-81
2022/10/08 12:44:18;;;;;;;13.95;6.63;;;21.60;99.90;;;;;;5056898;28;20021;-82
2022/10/08 12:47:15;;;;;;;10.50;5.22;;;21.80;99.90;;;;;;5055745;28;20028;-83
2022/10/08 12:49:48;;;;;;;15.13;6.18;;;21.70;99.90;;;;;;5055350;28;20025;-82
2022/10/08 12:52:19;;;;;;;19.67;6.30;;;21.60;99.90;;;;;;5050875;28;20025;-81
2022/10/08 12:54:48;;;;;;;19.60;5.95;;;21.60;99.90;;;;;;5062613;28;20037;-81
2022/10/08 12:57:33;;;;;;;18.83;5.87;;;21.70;99.90;;;;;;5057489;28;20110;-82
2022/10/08 13:00:05;;;;;;;21.25;6.30;;;21.90;99.90;;;;;;5057989;28;20488;-81